Wainwright Airport
PAWI : rendu visible

Aérodrome :











RETROUVEZ-NOUS SUR...

 
LOGIN :

S'inscrire | Disclaimer

   EN    FR    IT 

 









Légende :    VFR   VFR Marginal   IFR   IFR Intensif   IFR Très Intensif
Visi : 
Plafond : 
>= 8 km
>= 3000ft
5 à 8 km
1000 à 3000 ft
1500m à 5 km
500 à 1000 ft
800 à 1500m
200 à 500 ft
< 800m
< 200 ft
Symboles :   Orages  Brouillard  Fortes neiges  Fortes précipitations  Vent > 20 kt






- Altitude de l'aérodrome : 41 ft
- Code IATA : AIN


PAWI - Wainwright

DERNIER METAR :
  • 081753Z AUTO 13008KT CLR M27/M31 A2985 RMK SLP111 T12721306 11239 21283 56007 TSNO PNO $ VIA AUTODIAL

METARs EXPIRÉS :
  • 081653Z AUTO 14007KT CLR M28/M31 A2986 RMK SLP113 T12781306 TSNO PNO $ VIA AUTODIAL
  • 081553Z AUTO 14008KT CLR M28/M32 A2987 RMK SLP115 T12831317 TSNO PNO $ VIA AUTODIAL

TAF N/A



MET'MAP, la Météo Aéronautique d'un coup d'oeil ! - Copyright ORBIFLY Décembre 2007 - Disclaimer

ORBIFLY MET'MAP TEAM :

Programmation & Développement : Alexandra Zaïnal
Sur une idée originale de : Baudouin d'Aumeries
Assistance à la programmation : Marc-Olivier Méhu
Soutien technique & logistique : Manuel Goepfert

Contact : metmap@orbifly.com




SOURCES & CREDITS :

   NOAA       Earth
Advisory